Startpagina
METAR-TAF:

METAR-TAF

Vliegvelden :

Aeropuerto Internacional Jorge Newbery

Buenos Aires, Argentinië

breedte: 34-34S, lengte: 058-25W, hoogte: 6 m

Actueel weer

Dit bericht is 34 minuten geleden gemaakt, om 18:00 UTC
Wind 7 kt uit variabele richting
Temperatuur 24°C
Vochtigheid 54%
Druk 1011 hPa
Zicht 10 km of meer
Verspreide wolken op 3800 ft

METAR: SABE 181800Z VRB07KT 9999 SCT038 24/14 Q1011 NOSIG

Tijdstip: 15:34 (18:34 UTC)

Verwachting

Dit bericht is 1 uur en het 34 minuten geleden gemaakt, om 17:00 UTC
Verwachting geldig van 18 om 18 UTC tot 19 om 18 UTC
Wind 10 kt uit het zuidwesten
Zicht 10 km of meer
Weinig wolken op 2500 ft
Wijzigt naar
van 18 om 19 UTC tot 18 om 21 UTC
Wind 10 kt uit het zuiden
Wijzigt naar
van 19 om 01 UTC tot 19 om 04 UTC
Wind 5 kt uit variabele richting
Wijzigt naar
van 19 om 11 UTC tot 19 om 14 UTC
Wind 15 kt uit het noorden

TAF: SABE 181700Z 1818/1918 23010KT 9999 FEW025 TX25/1918Z TN20/1910Z BECMG 1819/1821 18010KT BECMG 1901/1904 VRB05KT BECMG 1911/1914 36015KT

Waarnemingen en weersverwachtingen van meer dan 4000 vliegvelden (METAR en TAF).

De beschikbare stations zijn de gele en rode punten op de kaart.

Ga met uw muis naar het station om de naam te zien.

Klik dan om waarnemingen en weersverwachtingen te zien.

kaart wijzigen: klik op de groene knoppen met een zwart kruis om in te zoomen, op de groene knop met een streepje om uit te zoomen of op de groene pijlen voor aangrenzende kaarten.


METAR-TAF: